This is the latest recevied weather packets stored in our database for station/object KG7FOQ-13. If no packets are shown the sender has not sent any weather packets the latest 10 day(s).
| Time | Temp. | Humidity | Pressure | Rain* | Wind** | Luminosity | Snow |
|---|---|---|---|---|---|---|---|
| 1777720395 | 5.56° C | 63% | 1018.7 hPa | 0 mm | - | - | - |
| 1777720094 | 5.56° C | 63% | 1018.7 hPa | 0 mm | - | - | - |
| 1777719794 | 6.11° C | 60% | 1018.7 hPa | 0 mm | - | - | - |
| 1777719493 | 6.11° C | 63% | 1018.6 hPa | 0 mm | - | - | - |
| 1777719193 | 6.67° C | 59% | 1018.6 hPa | 0 mm | - | - | - |
| 1777718892 | 7.22° C | 58% | 1018.7 hPa | 0 mm | - | - | - |
| 1777718592 | 7.78° C | 53% | 1018.6 hPa | 0 mm | - | - | - |
| 1777718291 | 7.22° C | 53% | 1018.6 hPa | 0 mm | - | - | - |
| 1777717991 | 6.67° C | 57% | 1018.7 hPa | 0 mm | - | - | - |
| 1777717690 | 7.22° C | 54% | 1018.6 hPa | 0 mm | - | - | - |
| 1777717390 | 7.22° C | 53% | 1018.5 hPa | 0 mm | - | - | - |
| 1777717089 | 6.67° C | 54% | 1018.5 hPa | 0 mm | - | - | - |
| 1777716789 | 6.67° C | 54% | 1018.5 hPa | 0 mm | - | - | - |
| 1777716488 | 6.11° C | 56% | 1018.5 hPa | 0 mm | - | - | - |
| 1777716188 | 6.67° C | 54% | 1018.5 hPa | 0 mm | - | - | - |
| 1777715887 | 7.78° C | 50% | 1018.4 hPa | 0 mm | - | - | - |
| 1777715587 | 7.78° C | 52% | 1018.5 hPa | 0 mm | - | - | - |
| 1777715286 | 7.78° C | 52% | 1018.5 hPa | 0 mm | - | - | - |
| 1777714986 | 8.33° C | 51% | 1018.5 hPa | 0 mm | - | - | - |
| 1777714685 | 8.33° C | 50% | 1018.4 hPa | 0 mm | - | - | - |
| 1777714385 | 8.33° C | 49% | 1018.5 hPa | 0 mm | - | - | - |
| 1777714084 | 8.33° C | 46% | 1018.2 hPa | 0 mm | - | - | - |
| 1777713783 | 7.22° C | 55% | 1018.5 hPa | 0 mm | - | - | - |
| 1777713483 | 7.78° C | 50% | 1018.4 hPa | 0 mm | - | - | - |
| 1777713183 | 8.33° C | 50% | 1018.4 hPa | 0 mm | - | - | - |
* Rain latest hour (hover to see other rain measurements)
** Current wind speed in m/s (hover to see current wind gust speed)